createdAt,value
2023-01-08T00:03:38.397Z,3.84
2023-01-08T00:05:39.381Z,3.84
2023-01-08T00:07:40.490Z,3.84
2023-01-08T00:09:42.401Z,3.84
2023-01-08T00:13:46.190Z,3.84
2023-01-08T00:15:47.925Z,3.84
2023-01-08T00:17:49.244Z,3.84
2023-01-08T00:19:50.524Z,3.84
2023-01-08T00:21:52.144Z,3.84
2023-01-08T00:23:53.159Z,3.84
2023-01-08T00:25:54.766Z,3.84
2023-01-08T00:29:57.196Z,3.84
2023-01-08T00:31:58.371Z,3.84
2023-01-08T00:34:00.157Z,3.84
2023-01-08T00:36:01.873Z,3.84
2023-01-08T00:38:03.073Z,3.84
2023-01-08T00:40:04.065Z,3.84
2023-01-08T00:42:05.621Z,3.84
2023-01-08T00:46:08.775Z,3.84
2023-01-08T00:48:09.821Z,3.84
2023-01-08T00:50:11.398Z,3.84
2023-01-08T00:52:12.633Z,3.84
2023-01-08T00:56:15.330Z,3.84
2023-01-08T00:58:16.415Z,3.83
2023-01-08T01:02:19.382Z,3.84
2023-01-08T01:04:21.094Z,3.84
2023-01-08T01:06:22.167Z,3.84
2023-01-08T01:08:23.470Z,3.84
2023-01-08T01:12:26.372Z,3.83
2023-01-08T01:14:28.055Z,3.84
2023-01-08T01:16:29.342Z,3.83
2023-01-08T01:18:31.136Z,3.84
2023-01-08T01:20:32.278Z,3.83
2023-01-08T01:22:33.403Z,3.83
2023-01-08T01:24:34.871Z,3.83
2023-01-08T01:28:37.313Z,3.83
2023-01-08T01:30:39.263Z,3.83
2023-01-08T01:32:40.273Z,3.83
2023-01-08T01:34:41.352Z,3.83
2023-01-08T01:38:44.477Z,3.83
2023-01-08T01:40:46.153Z,3.83
2023-01-08T01:42:48.041Z,3.83
2023-01-08T01:44:49.545Z,3.83
2023-01-08T01:46:51.191Z,3.83
2023-01-08T01:48:52.718Z,3.83
2023-01-08T01:50:54.489Z,3.83
2023-01-08T01:54:57.790Z,3.83
2023-01-08T01:56:59.318Z,3.83
2023-01-08T02:01:02.892Z,3.82
2023-01-08T02:03:04.685Z,3.83
2023-01-08T02:05:06.060Z,3.83
2023-01-08T02:07:07.717Z,3.82
2023-01-08T02:11:10.585Z,3.82
2023-01-08T02:13:12.015Z,3.82
2023-01-08T02:15:14.000Z,3.83
2023-01-08T02:17:15.700Z,3.82
2023-01-08T02:19:16.727Z,3.82
2023-01-08T02:21:18.256Z,3.82
2023-01-08T02:22:02.132Z,3.82
2023-01-08T02:26:05.557Z,3.82
2023-01-08T02:28:07.220Z,3.82
2023-01-08T02:32:10.556Z,3.82
2023-01-08T02:34:11.781Z,3.82
2023-01-08T02:36:13.087Z,3.82
2023-01-08T02:38:14.792Z,3.82
2023-01-08T02:40:15.832Z,3.82
2023-01-08T02:42:17.115Z,3.82
2023-01-08T02:44:18.696Z,3.82
2023-01-08T02:48:22.525Z,3.82
2023-01-08T02:50:24.065Z,3.82
2023-01-08T02:52:25.649Z,3.82
2023-01-08T02:54:26.922Z,3.82
2023-01-08T02:58:29.552Z,3.82
2023-01-08T03:00:30.837Z,3.82
2023-01-08T03:02:32.553Z,3.82
2023-01-08T03:04:33.585Z,3.82
2023-01-08T03:06:35.021Z,3.82
2023-01-08T03:08:36.684Z,3.82
2023-01-08T03:10:37.729Z,3.82
2023-01-08T03:14:41.588Z,3.82
2023-01-08T03:16:42.867Z,3.82
2023-01-08T03:18:44.337Z,3.82
2023-01-08T03:20:46.239Z,3.82
2023-01-08T03:22:47.265Z,3.82
2023-01-08T03:24:48.404Z,3.82
2023-01-08T03:26:50.135Z,3.82
2023-01-08T03:30:53.590Z,3.82
2023-01-08T03:32:55.181Z,3.81
2023-01-08T03:34:57.110Z,3.81
2023-01-08T03:36:58.936Z,3.81
2023-01-08T03:39:00.228Z,3.82
2023-01-08T03:41:01.817Z,3.81
2023-01-08T03:43:03.320Z,3.81
2023-01-08T03:47:06.188Z,3.81
2023-01-08T03:49:07.896Z,3.81
2023-01-08T03:51:09.866Z,3.81
2023-01-08T03:53:11.773Z,3.81
2023-01-08T03:57:15.264Z,3.81
2023-01-08T03:59:16.893Z,3.81
2023-01-08T04:01:18.654Z,3.81
2023-01-08T04:03:20.547Z,3.81
2023-01-08T04:05:22.046Z,3.81
2023-01-08T04:07:23.585Z,3.81
2023-01-08T04:09:24.957Z,3.81
2023-01-08T04:13:27.505Z,3.81
2023-01-08T04:15:28.948Z,3.81
2023-01-08T04:17:30.700Z,3.81
2023-01-08T04:19:32.145Z,3.81
2023-01-08T04:21:33.123Z,3.81
2023-01-08T04:23:42.604Z,3.81
2023-01-08T04:25:36.321Z,3.8
2023-01-08T04:29:38.978Z,3.8
2023-01-08T04:31:40.655Z,3.81
2023-01-08T04:33:41.995Z,3.81
2023-01-08T04:35:43.829Z,3.8
2023-01-08T04:37:45.418Z,3.81
2023-01-08T04:39:47.029Z,3.8
2023-01-08T04:41:48.046Z,3.8
2023-01-08T04:43:49.990Z,3.8
2023-01-08T04:45:51.806Z,3.8
2023-01-08T04:47:53.489Z,3.8
2023-01-08T04:49:54.708Z,3.8
2023-01-08T04:51:56.209Z,3.8
2023-01-08T04:55:59.777Z,3.8
2023-01-08T04:58:00.827Z,3.8
2023-01-08T05:00:02.651Z,3.8
2023-01-08T05:02:04.542Z,3.8
2023-01-08T05:04:05.967Z,3.8
2023-01-08T05:06:07.184Z,3.8
2023-01-08T05:08:08.961Z,3.8
2023-01-08T05:12:11.979Z,3.8
2023-01-08T05:14:13.881Z,3.8
2023-01-08T05:16:15.825Z,3.8
2023-01-08T05:18:16.812Z,3.8
2023-01-08T05:22:19.621Z,3.8
2023-01-08T05:24:20.867Z,3.8
2023-01-08T05:28:23.725Z,3.8
2023-01-08T05:30:24.916Z,3.8
2023-01-08T05:32:26.187Z,3.8
2023-01-08T05:34:27.535Z,3.8
2023-01-08T05:38:31.312Z,3.8
2023-01-08T05:40:33.223Z,3.8
2023-01-08T05:42:34.762Z,3.8
2023-01-08T05:44:36.144Z,3.8
2023-01-08T05:46:37.337Z,3.8
2023-01-08T05:48:38.974Z,3.8
2023-01-08T05:50:40.035Z,3.79
2023-01-08T05:54:43.662Z,3.79
2023-01-08T05:56:45.279Z,3.79
2023-01-08T05:58:47.174Z,3.8
2023-01-08T06:00:48.544Z,3.8
2023-01-08T06:04:51.792Z,3.79
2023-01-08T06:06:52.882Z,3.79
2023-01-08T06:10:55.973Z,3.79
2023-01-08T06:12:57.265Z,3.79
2023-01-08T06:14:58.668Z,3.79
2023-01-08T06:16:59.900Z,3.79
2023-01-08T06:21:03.293Z,3.79
2023-01-08T06:23:05.115Z,3.79
2023-01-08T06:25:06.565Z,3.79
2023-01-08T06:27:08.243Z,3.79
2023-01-08T06:29:09.653Z,3.79
2023-01-08T06:31:11.169Z,3.79
2023-01-08T06:33:12.062Z,3.79
2023-01-08T06:37:15.317Z,3.79
2023-01-08T06:39:16.789Z,3.79
2023-01-08T06:41:18.316Z,3.79
2023-01-08T06:43:19.429Z,3.79
2023-01-08T06:47:22.363Z,3.79
2023-01-08T06:49:24.111Z,3.79
2023-01-08T06:53:26.426Z,3.79
2023-01-08T06:55:28.231Z,3.79
2023-01-08T06:57:29.527Z,3.79
2023-01-08T06:59:31.370Z,3.79
2023-01-08T07:03:34.588Z,3.79
2023-01-08T07:05:35.934Z,3.79
2023-01-08T07:07:37.601Z,3.79
2023-01-08T07:09:38.609Z,3.78
2023-01-08T07:11:39.974Z,3.78
2023-01-08T07:13:41.334Z,3.78
2023-01-08T07:15:42.336Z,3.79
2023-01-08T07:19:44.968Z,3.78
2023-01-08T07:21:46.451Z,3.78
2023-01-08T07:23:48.325Z,3.79
2023-01-08T07:25:49.711Z,3.78
2023-01-08T07:29:53.186Z,3.78
2023-01-08T07:31:54.177Z,3.78
2023-01-08T07:33:55.343Z,3.78
2023-01-08T07:35:56.316Z,3.78
2023-01-08T07:37:57.969Z,3.78
2023-01-08T07:39:58.953Z,3.78
2023-01-08T07:42:00.734Z,3.78
2023-01-08T07:46:03.995Z,3.78
2023-01-08T07:48:05.637Z,3.78
2023-01-08T07:52:09.117Z,3.78
2023-01-08T07:54:10.699Z,3.78
2023-01-08T07:56:11.763Z,3.78
2023-01-08T07:58:12.901Z,3.78
2023-01-08T08:02:16.192Z,3.78
2023-01-08T08:04:17.705Z,3.78
2023-01-08T08:06:18.642Z,3.78
2023-01-08T08:08:20.068Z,3.78
2023-01-08T08:10:21.206Z,3.78
2023-01-08T08:12:22.778Z,3.78
2023-01-08T08:14:24.409Z,3.78
2023-01-08T08:18:26.632Z,3.78
2023-01-08T08:20:27.656Z,3.78
2023-01-08T08:22:28.585Z,3.78
2023-01-08T08:24:30.285Z,3.78
2023-01-08T08:28:33.191Z,3.78
2023-01-08T08:30:34.880Z,3.78
2023-01-08T08:34:36.979Z,3.78
2023-01-08T08:36:38.584Z,3.78
2023-01-08T08:38:40.180Z,3.78
2023-01-08T08:40:41.909Z,3.78
2023-01-08T08:44:44.661Z,3.78
2023-01-08T08:46:46.251Z,3.77
2023-01-08T08:48:47.417Z,3.78
2023-01-08T08:50:58.117Z,3.78
2023-01-08T08:52:50.665Z,3.78
2023-01-08T08:54:52.402Z,3.78
2023-01-08T08:56:53.641Z,3.77
2023-01-08T09:00:55.737Z,3.77
2023-01-08T09:02:57.176Z,3.77
2023-01-08T09:04:58.159Z,3.77
2023-01-08T09:06:59.122Z,3.77
2023-01-08T09:07:42.942Z,3.77
2023-01-08T09:09:44.367Z,3.77
2023-01-08T09:11:46.138Z,3.77
2023-01-08T09:13:47.479Z,3.77
2023-01-08T09:15:49.311Z,3.77
2023-01-08T09:17:50.900Z,3.77
2023-01-08T09:21:53.692Z,3.77
2023-01-08T09:23:55.008Z,3.77
2023-01-08T09:27:57.698Z,3.77
2023-01-08T09:29:59.602Z,3.77
2023-01-08T09:32:00.929Z,3.77
2023-01-08T09:34:02.900Z,3.77
2023-01-08T09:38:05.161Z,3.77
2023-01-08T09:40:06.618Z,3.77
2023-01-08T09:42:08.367Z,3.77
2023-01-08T09:44:09.355Z,3.77
2023-01-08T09:48:12.943Z,3.77
2023-01-08T09:50:14.033Z,3.77
2023-01-08T09:52:15.778Z,3.77
2023-01-08T09:54:17.243Z,3.77
2023-01-08T09:56:18.537Z,3.77
2023-01-08T09:58:19.603Z,3.76
2023-01-08T10:00:20.829Z,3.76
2023-01-08T10:04:24.175Z,3.76
2023-01-08T10:06:25.511Z,3.76
2023-01-08T10:08:26.697Z,3.76
2023-01-08T10:10:27.659Z,3.76
2023-01-08T10:12:29.452Z,3.76
2023-01-08T10:14:31.355Z,3.76
2023-01-08T10:16:32.377Z,3.76
2023-01-08T10:20:35.553Z,3.76
2023-01-08T10:22:37.132Z,3.77
2023-01-08T10:24:38.738Z,3.76
2023-01-08T10:26:39.877Z,3.76
2023-01-08T10:28:41.536Z,3.76
2023-01-08T10:30:43.035Z,3.76
2023-01-08T10:32:44.407Z,3.76
2023-01-08T10:36:46.771Z,3.76
2023-01-08T10:38:48.071Z,3.76
2023-01-08T10:40:49.615Z,3.76
2023-01-08T10:42:51.085Z,3.76
2023-01-08T10:46:53.702Z,3.76
2023-01-08T10:48:55.404Z,3.76
2023-01-08T10:50:56.724Z,3.76
2023-01-08T10:52:58.076Z,3.76
2023-01-08T10:54:59.074Z,3.76
2023-01-08T10:57:02.441Z,3.76
2023-01-08T10:59:01.717Z,3.76
2023-01-08T11:03:04.919Z,3.76
2023-01-08T11:05:06.613Z,3.76
2023-01-08T11:07:07.874Z,3.76
2023-01-08T11:09:09.148Z,3.76
2023-01-08T11:11:10.725Z,3.76
2023-01-08T11:13:12.455Z,3.76
2023-01-08T11:15:14.357Z,3.76
2023-01-08T11:19:17.739Z,3.75
2023-01-08T11:21:19.205Z,3.76
2023-01-08T11:23:20.499Z,3.76
2023-01-08T11:25:21.625Z,3.76
2023-01-08T11:29:25.183Z,3.75
2023-01-08T11:31:26.548Z,3.75
2023-01-08T11:33:28.199Z,3.75
2023-01-08T11:35:29.500Z,3.76
2023-01-08T11:37:30.975Z,3.75
2023-01-08T11:39:32.880Z,3.75
2023-01-08T11:41:34.625Z,3.76
2023-01-08T11:45:37.680Z,3.76
2023-01-08T11:47:39.410Z,3.76
2023-01-08T11:49:40.492Z,3.76
2023-01-08T11:51:42.225Z,3.76
2023-01-08T11:53:43.742Z,3.76
2023-01-08T11:55:44.680Z,3.76
2023-01-08T11:57:45.605Z,3.76
2023-01-08T12:01:48.875Z,3.76
2023-01-08T12:03:49.936Z,3.77
2023-01-08T12:05:51.024Z,3.77
2023-01-08T12:07:52.158Z,3.78
2023-01-08T12:11:55.369Z,3.78
2023-01-08T12:13:56.887Z,3.78
2023-01-08T12:17:59.776Z,3.78
2023-01-08T12:20:00.883Z,3.78
2023-01-08T12:22:02.467Z,3.78
2023-01-08T12:24:03.823Z,3.78
2023-01-08T12:28:06.875Z,3.79
2023-01-08T12:30:08.493Z,3.8
2023-01-08T12:32:09.757Z,3.79
2023-01-08T12:34:11.312Z,3.79
2023-01-08T12:36:12.667Z,3.79
2023-01-08T12:38:23.351Z,3.8
2023-01-08T12:40:16.120Z,3.8
2023-01-08T12:44:19.057Z,3.81
2023-01-08T12:46:20.082Z,3.81
2023-01-08T12:48:21.514Z,3.81
2023-01-08T12:50:22.682Z,3.81
2023-01-08T12:54:25.305Z,3.8
2023-01-08T12:56:26.735Z,3.8
2023-01-08T12:58:28.385Z,3.8
2023-01-08T13:00:29.441Z,3.8
2023-01-08T13:02:30.647Z,3.8
2023-01-08T13:04:31.504Z,3.81
2023-01-08T13:06:33.119Z,3.82
2023-01-08T13:10:37.305Z,3.84
2023-01-08T13:12:38.490Z,3.84
2023-01-08T13:16:41.237Z,3.82
2023-01-08T13:18:43.035Z,3.84
2023-01-08T13:20:44.142Z,3.82
2023-01-08T13:22:45.405Z,3.83
2023-01-08T13:26:48.281Z,3.83
2023-01-08T13:28:49.551Z,3.82
2023-01-08T13:30:50.566Z,3.82
2023-01-08T13:32:52.430Z,3.82
2023-01-08T13:34:53.660Z,3.82
2023-01-08T13:36:54.931Z,3.82
2023-01-08T13:38:55.911Z,3.82
2023-01-08T13:42:59.541Z,3.82
2023-01-08T13:45:01.320Z,3.82
2023-01-08T13:47:03.034Z,3.82
2023-01-08T13:49:04.317Z,3.82
2023-01-08T13:53:06.917Z,3.82
2023-01-08T13:55:08.589Z,3.82
2023-01-08T13:57:09.997Z,3.82
2023-01-08T13:59:11.033Z,3.82
2023-01-08T14:01:12.043Z,3.82
2023-01-08T14:03:13.766Z,3.82
2023-01-08T14:05:15.140Z,3.82
2023-01-08T14:09:18.576Z,3.82
2023-01-08T14:11:19.760Z,3.82
2023-01-08T14:13:20.695Z,3.82
2023-01-08T14:15:22.166Z,3.82
2023-01-08T14:17:23.698Z,3.82
2023-01-08T14:19:24.759Z,3.82
2023-01-08T14:21:26.001Z,3.85
2023-01-08T14:25:28.836Z,3.82
2023-01-08T14:27:30.165Z,3.82
2023-01-08T14:29:31.865Z,3.82
2023-01-08T14:31:32.885Z,3.82
2023-01-08T14:35:35.335Z,3.82
2023-01-08T14:37:37.191Z,3.82
2023-01-08T14:41:39.280Z,3.82
2023-01-08T14:43:41.094Z,3.82
2023-01-08T14:45:42.947Z,3.82
2023-01-08T14:47:44.045Z,3.82
2023-01-08T14:51:46.489Z,3.82
2023-01-08T14:53:47.645Z,3.81
2023-01-08T14:55:49.296Z,3.81
2023-01-08T14:57:50.467Z,3.82
2023-01-08T14:59:52.428Z,3.82
2023-01-08T15:01:54.409Z,3.82
2023-01-08T15:03:55.119Z,3.81
2023-01-08T15:07:58.417Z,3.81
2023-01-08T15:09:59.490Z,3.81
2023-01-08T15:12:00.949Z,3.81
2023-01-08T15:14:02.494Z,3.81
2023-01-08T15:18:05.447Z,3.81
2023-01-08T15:20:06.465Z,3.81
2023-01-08T15:22:07.610Z,3.81
2023-01-08T15:24:09.378Z,3.81
2023-01-08T15:26:10.309Z,3.81
2023-01-08T15:28:11.381Z,3.81
2023-01-08T15:30:12.566Z,3.81
2023-01-08T15:34:15.096Z,3.81
2023-01-08T15:36:16.223Z,3.81
2023-01-08T15:38:17.207Z,3.81
2023-01-08T15:40:18.962Z,3.81
2023-01-08T15:42:20.762Z,3.81
2023-01-08T15:44:22.609Z,3.81
2023-01-08T15:46:23.731Z,3.81
2023-01-08T15:50:26.491Z,3.81
2023-01-08T15:52:27.765Z,3.81
2023-01-08T15:53:11.556Z,3.8
2023-01-08T15:55:13.219Z,3.81
2023-01-08T15:57:14.181Z,3.8
2023-01-08T16:01:17.315Z,3.8
2023-01-08T16:03:18.500Z,3.8
2023-01-08T16:05:19.943Z,3.8
2023-01-08T16:07:21.640Z,3.8
2023-01-08T16:11:24.791Z,3.8
2023-01-08T16:13:26.324Z,3.8
2023-01-08T16:15:27.935Z,3.8
2023-01-08T16:17:28.864Z,3.8
2023-01-08T16:19:29.847Z,3.8
2023-01-08T16:21:31.106Z,3.8
2023-01-08T16:23:32.223Z,3.8
2023-01-08T16:27:34.901Z,3.8
2023-01-08T16:29:36.005Z,3.8
2023-01-08T16:31:38.477Z,3.8
2023-01-08T16:33:38.813Z,3.8
2023-01-08T16:35:40.227Z,3.8
2023-01-08T16:37:41.380Z,3.8
2023-01-08T16:39:42.506Z,3.8
2023-01-08T16:43:45.687Z,3.8
2023-01-08T16:45:47.321Z,3.8
2023-01-08T16:47:48.593Z,3.8
2023-01-08T16:49:50.292Z,3.8
2023-01-08T16:51:52.109Z,3.8
2023-01-08T16:53:53.974Z,3.8
2023-01-08T16:55:54.978Z,3.8
2023-01-08T16:59:57.720Z,3.8
2023-01-08T17:01:58.739Z,3.8
2023-01-08T17:04:00.819Z,3.8
2023-01-08T17:06:01.923Z,3.8
2023-01-08T17:08:02.840Z,3.8
2023-01-08T17:10:04.832Z,3.8
2023-01-08T17:12:05.918Z,3.8
2023-01-08T17:16:09.181Z,3.8
2023-01-08T17:18:10.649Z,3.8
2023-01-08T17:20:12.220Z,3.79
2023-01-08T17:22:13.456Z,3.8
2023-01-08T17:26:15.826Z,3.79
2023-01-08T17:28:17.538Z,3.79
2023-01-08T17:32:20.286Z,3.79
2023-01-08T17:34:21.669Z,3.79
2023-01-08T17:36:22.783Z,3.79
2023-01-08T17:38:24.386Z,3.79
2023-01-08T17:42:26.679Z,3.79
2023-01-08T17:44:28.149Z,3.79
2023-01-08T17:46:29.848Z,3.79
2023-01-08T17:48:31.120Z,3.79
2023-01-08T17:50:32.596Z,3.79
2023-01-08T17:52:33.739Z,3.78
2023-01-08T17:54:35.621Z,3.78
2023-01-08T17:58:38.717Z,3.79
2023-01-08T18:00:40.201Z,3.79
2023-01-08T18:02:41.499Z,3.79
2023-01-08T18:04:43.184Z,3.79
2023-01-08T18:08:46.642Z,3.78
2023-01-08T18:10:48.122Z,3.78
2023-01-08T18:12:49.203Z,3.78
2023-01-08T18:14:50.463Z,3.78
2023-01-08T18:16:51.580Z,3.78
2023-01-08T18:18:53.124Z,3.78
2023-01-08T18:20:54.209Z,3.78
2023-01-08T18:24:57.224Z,3.78
2023-01-08T18:26:58.220Z,3.78
2023-01-08T18:31:01.243Z,3.78
2023-01-08T18:33:02.588Z,3.78
2023-01-08T18:35:03.859Z,3.78
2023-01-08T18:37:05.238Z,3.78
2023-01-08T18:41:07.551Z,3.78
2023-01-08T18:43:08.568Z,3.78
2023-01-08T18:45:10.224Z,3.78
2023-01-08T18:47:11.321Z,3.78
2023-01-08T18:51:14.401Z,3.78
2023-01-08T18:53:16.163Z,3.78
2023-01-08T18:55:17.404Z,3.78
2023-01-08T18:57:19.132Z,3.78
2023-01-08T18:59:20.411Z,3.78
2023-01-08T19:01:21.699Z,3.78
2023-01-08T19:03:23.338Z,3.78
2023-01-08T19:07:25.958Z,3.78
2023-01-08T19:09:27.759Z,3.78
2023-01-08T19:11:29.352Z,3.78
2023-01-08T19:13:30.900Z,3.78
2023-01-08T19:15:32.821Z,3.78
2023-01-08T19:17:34.674Z,3.78
2023-01-08T19:19:36.266Z,3.78
2023-01-08T19:23:38.173Z,3.78
2023-01-08T19:25:39.791Z,3.78
2023-01-08T19:27:41.137Z,3.77
2023-01-08T19:29:42.378Z,3.77
2023-01-08T19:33:45.324Z,3.77
2023-01-08T19:35:46.599Z,3.77
2023-01-08T19:39:49.236Z,3.77
2023-01-08T19:41:50.735Z,3.77
2023-01-08T19:43:52.183Z,3.77
2023-01-08T19:45:53.817Z,3.77
2023-01-08T19:49:56.375Z,3.77
2023-01-08T19:51:57.671Z,3.77
2023-01-08T19:53:59.140Z,3.77
2023-01-08T19:56:00.478Z,3.77
2023-01-08T19:58:01.490Z,3.77
2023-01-08T20:00:02.517Z,3.77
2023-01-08T20:02:03.978Z,3.77
2023-01-08T20:06:06.923Z,3.77
2023-01-08T20:08:08.547Z,3.77
2023-01-08T20:10:10.327Z,3.77
2023-01-08T20:12:11.673Z,3.76
2023-01-08T20:14:13.290Z,3.76
2023-01-08T20:16:14.387Z,3.77
2023-01-08T20:18:16.174Z,3.76
2023-01-08T20:22:19.627Z,3.76
2023-01-08T20:24:20.942Z,3.76
2023-01-08T20:26:22.815Z,3.76
2023-01-08T20:28:23.816Z,3.77
2023-01-08T20:32:26.806Z,3.76
2023-01-08T20:34:28.057Z,3.76
2023-01-08T20:36:29.934Z,3.76
2023-01-08T20:38:31.135Z,3.76
2023-01-08T20:40:32.748Z,3.76
2023-01-08T20:42:34.677Z,3.76
2023-01-08T20:44:35.579Z,3.76
2023-01-08T20:48:46.815Z,3.76
2023-01-08T20:50:39.555Z,3.76
2023-01-08T20:52:40.797Z,3.76
2023-01-08T20:54:41.936Z,3.76
2023-01-08T20:56:43.658Z,3.76
2023-01-08T20:58:45.541Z,3.76
2023-01-08T21:00:46.553Z,3.76
2023-01-08T21:04:49.690Z,3.76
2023-01-08T21:06:51.533Z,3.76
2023-01-08T21:08:53.193Z,3.76
2023-01-08T21:10:54.882Z,3.76
2023-01-08T21:14:58.078Z,3.76
2023-01-08T21:16:59.395Z,3.76
2023-01-08T21:21:02.938Z,3.76
2023-01-08T21:23:04.265Z,3.76
2023-01-08T21:25:05.409Z,3.76
2023-01-08T21:27:06.899Z,3.75
2023-01-08T21:31:09.628Z,3.75
2023-01-08T21:33:10.732Z,3.75
2023-01-08T21:35:12.495Z,3.75
2023-01-08T21:37:14.193Z,3.75
2023-01-08T21:39:15.852Z,3.75
2023-01-08T21:41:17.589Z,3.75
2023-01-08T21:43:19.479Z,3.75
2023-01-08T21:47:21.930Z,3.75
2023-01-08T21:49:23.707Z,3.75
2023-01-08T21:51:25.243Z,3.75
2023-01-08T21:53:26.759Z,3.75
2023-01-08T21:57:29.176Z,3.75
2023-01-08T21:59:31.103Z,3.75
2023-01-08T22:03:33.892Z,3.75
2023-01-08T22:05:35.161Z,3.75
2023-01-08T22:07:36.774Z,3.75
2023-01-08T22:09:38.626Z,3.75
2023-01-08T22:13:41.907Z,3.75
2023-01-08T22:15:43.446Z,3.74
2023-01-08T22:17:45.081Z,3.75
2023-01-08T22:19:46.662Z,3.74
2023-01-08T22:21:48.494Z,3.74
2023-01-08T22:23:49.415Z,3.75
2023-01-08T22:25:51.254Z,3.74
2023-01-08T22:29:54.059Z,3.74
2023-01-08T22:31:56.078Z,3.74
2023-01-08T22:33:57.537Z,3.74
2023-01-08T22:35:58.711Z,3.74
2023-01-08T22:38:43.875Z,3.74
2023-01-08T22:40:45.307Z,3.74
2023-01-08T22:42:47.212Z,3.74
2023-01-08T22:44:48.313Z,3.74
2023-01-08T22:46:49.915Z,3.74
2023-01-08T22:50:53.132Z,3.74
2023-01-08T22:52:54.534Z,3.74
2023-01-08T22:56:57.420Z,3.74
2023-01-08T22:58:58.796Z,3.74
2023-01-08T23:01:00.395Z,3.74
2023-01-08T23:03:01.604Z,3.74
2023-01-08T23:07:04.890Z,3.74
2023-01-08T23:09:06.147Z,3.74
2023-01-08T23:11:07.584Z,3.74
2023-01-08T23:13:09.055Z,3.74
2023-01-08T23:17:11.895Z,3.74
2023-01-08T23:19:13.795Z,3.74
2023-01-08T23:21:15.382Z,3.74
2023-01-08T23:23:17.266Z,3.74
2023-01-08T23:25:18.985Z,3.74
2023-01-08T23:27:20.093Z,3.74
2023-01-08T23:29:21.930Z,3.73
2023-01-08T23:33:24.848Z,3.74
2023-01-08T23:35:25.877Z,3.74
2023-01-08T23:37:27.687Z,3.74
2023-01-08T23:39:29.128Z,3.73
2023-01-08T23:41:30.280Z,3.73
2023-01-08T23:43:31.722Z,3.74
2023-01-08T23:45:32.822Z,3.73
2023-01-08T23:49:36.075Z,3.73
2023-01-08T23:51:37.204Z,3.73
2023-01-08T23:53:38.920Z,3.74
2023-01-08T23:55:40.812Z,3.73
2023-01-08T23:57:41.810Z,3.73
2023-01-08T23:59:42.891Z,3.73
